Eduardo Gomes International Airport
SBEG : now visible

Airfield :











YOU CAN JOIN US ON...

 
LOGIN :

Register | Disclaimer

   EN    FR    IT 

 









Legend :    VFR   Marginal VFR   IFR   Intensive IFR   Very Intensive IFR
Visi :
Ceiling :
>= 8 km
>= 3000ft
5 to 8 km
1000 to 3000 ft
1500m to 5 km
500 to 1000 ft
800 to 1500m
200 to 500 ft
< 800m
< 200 ft
Symbols :   Thunderstorms  Fog  Heavy snow  Heavy precipitations  Wind > 20 kt






- Airport Elevation : 264 ft
- IATA code : MAO


SBEG - Eduardo Gomes International

CURRENT METAR :
  • 271100Z 34002KT 9999 SCT008 BKN100 24/24 Q1012

EXPIRED METARs :
  • 271000Z 29002KT 9999 SCT017 24/24 Q1011
  • 270900Z 11002KT 9999 -RA SCT015 BKN080 24/23 Q1011

TAF TAF SBEG
Valid from the 27 at 12:00 until the 28 at 12:00 UTC


270900Z 2712/2812 03005KT 9999 FEW015 TX31/2717Z TN24/2810Z
BECMG 2715/2717 36007KT BKN020 FEW025TCU
BECMG 2718/2720 7000 TSRA BKN020 FEW025CB
BECMG 2721/2723 8000 NSW SCT020
BECMG 2800/2802 05005KT FEW020 RMK PGY



MET'MAP, your aeronautical weather chart ! - Copyright ORBIFLY December 2007 - Disclaimer

ORBIFLY MET'MAP TEAM :

Programming & Development : Alexandra Zaïnal
Concept & original design : Baudouin d'Aumeries
Assistance for programming : Marc-Olivier Méhu
Technical & hardware support : Manuel Goepfert

Contact : metmap@orbifly.com




SOURCES & CREDITS :

   NOAA       Earth
Advisory